Time;durP1;ratioP1;P1;durP2;ratioP2;P2;SDS_P1;SDS_P2;PMS_P1;PMS_P2;Temp;Humidity;BMP_temperature;BMP_pressure;BME280_temperature;BME280_humidity;BME280_pressure;Samples;Min_cycle;Max_cycle;Signal;HPM_P1;HPM_P2
2023/03/25 00:00:27;;;;;;;33.25;7.13;;;9.60;99.90;;;;;;5125114;28;20165;-84
2023/03/25 00:03:13;;;;;;;30.33;5.05;;;9.60;99.90;;;;;;5127241;28;20055;-82
2023/03/25 00:06:00;;;;;;;27.02;5.38;;;9.60;99.90;;;;;;5107354;28;20521;-83
2023/03/25 00:08:47;;;;;;;23.80;3.97;;;9.60;99.90;;;;;;5127056;28;20043;-85
2023/03/25 00:11:33;;;;;;;27.23;4.95;;;9.60;99.90;;;;;;5125940;28;20049;-84
2023/03/25 00:14:19;;;;;;;29.45;5.07;;;9.60;99.90;;;;;;5104837;28;20062;-85
2023/03/25 00:17:05;;;;;;;29.30;5.28;;;9.50;99.90;;;;;;5099435;28;20053;-84
2023/03/25 00:19:51;;;;;;;24.90;5.38;;;9.50;99.90;;;;;;5117303;28;20043;-84
2023/03/25 00:22:42;;;;;;;28.05;5.22;;;9.50;99.90;;;;;;5111926;28;20054;-81
2023/03/25 00:25:29;;;;;;;29.98;5.00;;;9.50;99.90;;;;;;5113690;28;20055;-83
2023/03/25 00:28:15;;;;;;;31.85;4.22;;;9.50;99.90;;;;;;5112173;28;20381;-83
2023/03/25 00:31:08;;;;;;;20.88;4.55;;;9.50;99.90;;;;;;5111450;28;20134;-83
2023/03/25 00:33:56;;;;;;;23.83;4.78;;;9.50;99.90;;;;;;5111709;28;20105;-86
2023/03/25 00:36:44;;;;;;;28.83;4.55;;;9.50;99.90;;;;;;5111900;28;20059;-82
2023/03/25 00:39:30;;;;;;;27.73;5.70;;;9.50;99.90;;;;;;5092902;28;20548;-82
2023/03/25 00:42:24;;;;;;;32.88;5.13;;;9.50;99.90;;;;;;5111576;28;20047;-82
2023/03/25 00:45:11;;;;;;;32.92;5.60;;;9.50;99.90;;;;;;5112053;28;20181;-82
2023/03/25 00:47:57;;;;;;;30.17;5.90;;;9.40;99.90;;;;;;5116390;28;20071;-82
2023/03/25 00:50:43;;;;;;;25.70;4.72;;;9.50;99.90;;;;;;5113342;28;20648;-84
2023/03/25 00:53:29;;;;;;;21.08;5.05;;;9.50;99.90;;;;;;5096789;28;20116;-86
2023/03/25 00:56:15;;;;;;;25.75;4.22;;;9.50;99.90;;;;;;5115032;28;20054;-85
2023/03/25 00:59:01;;;;;;;27.33;5.68;;;9.50;99.90;;;;;;5111988;28;20058;-85
2023/03/25 01:01:47;;;;;;;31.48;4.95;;;9.50;99.90;;;;;;5113187;28;20113;-86
2023/03/25 01:04:34;;;;;;;31.70;5.43;;;9.40;99.90;;;;;;5093177;28;20055;-83
2023/03/25 01:07:20;;;;;;;23.85;4.20;;;9.40;99.90;;;;;;5110758;28;20499;-83
2023/03/25 01:10:07;;;;;;;28.73;4.97;;;9.40;99.90;;;;;;5112417;28;20044;-84
2023/03/25 01:12:53;;;;;;;26.35;6.10;;;9.30;99.90;;;;;;5115535;28;20125;-86
2023/03/25 01:15:39;;;;;;;25.92;4.53;;;9.20;99.90;;;;;;5111151;28;20054;-85
2023/03/25 01:18:25;;;;;;;34.58;5.30;;;9.10;99.90;;;;;;5111476;28;20452;-85
2023/03/25 01:21:12;;;;;;;34.38;5.05;;;9.00;99.90;;;;;;5096066;28;20369;-84
2023/03/25 01:23:58;;;;;;;37.38;7.28;;;8.90;99.90;;;;;;5095855;28;20044;-86
2023/03/25 01:26:44;;;;;;;35.15;5.10;;;8.80;99.90;;;;;;5109185;28;20706;-85
2023/03/25 01:29:31;;;;;;;35.35;5.10;;;8.80;99.90;;;;;;5111097;28;20043;-86
2023/03/25 01:32:17;;;;;;;26.10;5.22;;;8.80;99.90;;;;;;5111726;28;20043;-85
2023/03/25 01:35:04;;;;;;;25.27;5.03;;;8.70;99.90;;;;;;5115448;28;20051;-85
2023/03/25 01:37:53;;;;;;;29.15;4.88;;;8.70;99.90;;;;;;5096317;28;20040;-84
2023/03/25 01:40:39;;;;;;;29.30;5.47;;;8.70;99.90;;;;;;5092375;28;20105;-85
2023/03/25 01:43:25;;;;;;;33.92;4.95;;;8.70;99.90;;;;;;5110001;28;20492;-84
2023/03/25 01:46:16;;;;;;;32.03;6.57;;;8.70;99.90;;;;;;5090364;28;20105;-86
2023/03/25 01:49:06;;;;;;;30.25;5.78;;;8.70;99.90;;;;;;5059224;28;20158;-87
2023/03/25 01:51:57;;;;;;;28.75;5.63;;;8.70;99.90;;;;;;5090980;28;20067;-84
2023/03/25 01:54:46;;;;;;;30.83;6.28;;;8.70;99.90;;;;;;5092933;28;20072;-83
2023/03/25 01:57:32;;;;;;;27.05;5.28;;;8.70;99.90;;;;;;5060353;28;20056;-83
2023/03/25 02:00:19;;;;;;;36.58;7.55;;;8.70;99.90;;;;;;5074536;28;20139;-84
2023/03/25 02:03:08;;;;;;;25.70;4.85;;;8.70;99.90;;;;;;5058756;28;20059;-85
2023/03/25 02:06:27;;;;;;;34.63;6.50;;;8.70;99.90;;;;;;5091873;28;20697;-83
2023/03/25 02:09:17;;;;;;;27.63;6.32;;;8.70;99.90;;;;;;5077685;28;20056;-84
2023/03/25 02:12:03;;;;;;;33.63;5.38;;;8.70;99.90;;;;;;5110012;28;20042;-83
2023/03/25 02:14:50;;;;;;;36.67;5.43;;;8.70;99.90;;;;;;5092781;28;20087;-85
2023/03/25 02:18:00;;;;;;;36.90;7.63;;;8.70;99.90;;;;;;5112881;28;20425;-84
2023/03/25 02:21:17;;;;;;;29.50;5.50;;;8.70;99.90;;;;;;5112158;28;20054;-84
2023/03/25 02:24:28;;;;;;;49.28;7.50;;;8.80;99.90;;;;;;5108913;28;20091;-85
2023/03/25 02:27:26;;;;;;;36.08;6.45;;;8.80;99.90;;;;;;5109851;28;20051;-83
2023/03/25 02:30:54;;;;;;;28.88;4.97;;;8.80;99.90;;;;;;5092352;28;20059;-86
2023/03/25 02:33:59;;;;;;;23.38;5.22;;;8.80;99.90;;;;;;5033860;28;20040;-83
2023/03/25 02:37:13;;;;;;;37.45;5.78;;;8.90;99.90;;;;;;5111771;28;20043;-83
2023/03/25 02:40:05;;;;;;;29.42;5.00;;;8.90;99.90;;;;;;5110275;28;20472;-85
2023/03/25 02:43:14;;;;;;;34.33;5.78;;;8.90;99.90;;;;;;5110712;28;20048;-86
2023/03/25 02:46:06;;;;;;;33.53;5.80;;;9.00;99.90;;;;;;5117545;28;20043;-85
2023/03/25 02:49:32;;;;;;;31.42;7.03;;;9.00;99.90;;;;;;5094694;28;20086;-86
2023/03/25 02:52:30;;;;;;;25.73;6.05;;;9.00;99.90;;;;;;5006938;28;20081;-86
2023/03/25 02:55:18;;;;;;;41.22;8.07;;;9.00;99.90;;;;;;4992129;28;20045;-84
2023/03/25 02:58:08;;;;;;;36.35;7.40;;;9.00;99.90;;;;;;5090046;28;20063;-84
2023/03/25 03:00:57;;;;;;;42.42;6.72;;;9.00;99.90;;;;;;5095302;28;20082;-85
2023/03/25 03:03:43;;;;;;;36.60;6.20;;;9.00;99.90;;;;;;5077354;28;20059;-84
2023/03/25 03:06:32;;;;;;;31.83;5.80;;;9.00;99.90;;;;;;5068276;28;20060;-82
2023/03/25 03:09:38;;;;;;;40.60;7.43;;;9.00;99.90;;;;;;5088153;28;20190;-83
2023/03/25 03:12:40;;;;;;;38.60;7.88;;;9.00;99.90;;;;;;5088385;28;20056;-85
2023/03/25 03:15:36;;;;;;;34.83;6.07;;;9.00;99.90;;;;;;5089420;28;20052;-83
2023/03/25 03:18:37;;;;;;;35.42;7.28;;;9.00;99.90;;;;;;5058214;28;20125;-85
2023/03/25 03:21:37;;;;;;;40.55;5.78;;;9.00;99.90;;;;;;5080341;28;20048;-85
2023/03/25 03:24:38;;;;;;;32.85;6.47;;;9.00;99.90;;;;;;5094527;28;20044;-83
2023/03/25 03:27:36;;;;;;;38.22;5.18;;;9.00;99.90;;;;;;5089195;28;20052;-85
2023/03/25 03:30:47;;;;;;;34.47;4.60;;;8.90;99.90;;;;;;5069716;28;20408;-83
2023/03/25 03:33:49;;;;;;;32.17;5.35;;;8.90;99.90;;;;;;5088471;28;20040;-86
2023/03/25 03:36:47;;;;;;;32.17;4.95;;;8.90;99.90;;;;;;5088332;28;20187;-83
2023/03/25 03:39:37;;;;;;;28.35;5.97;;;8.90;99.90;;;;;;5088953;28;20156;-85
2023/03/25 03:42:28;;;;;;;37.58;8.50;;;8.90;99.90;;;;;;5089012;28;20690;-85
2023/03/25 03:45:32;;;;;;;34.25;6.45;;;8.90;99.90;;;;;;5090484;28;20058;-84
2023/03/25 03:48:27;;;;;;;36.95;7.32;;;8.90;99.90;;;;;;5089998;28;20151;-84
2023/03/25 03:51:23;;;;;;;27.15;4.75;;;8.90;99.90;;;;;;5090944;28;20472;-83
2023/03/25 03:54:17;;;;;;;33.15;4.95;;;8.90;99.90;;;;;;5093014;28;20101;-84
2023/03/25 03:57:36;;;;;;;40.20;7.25;;;8.90;99.90;;;;;;5093411;28;20047;-86
2023/03/25 04:00:30;;;;;;;45.83;8.27;;;8.90;99.90;;;;;;5071931;28;20052;-86
2023/03/25 04:03:23;;;;;;;36.17;5.70;;;9.00;99.90;;;;;;5099952;28;20036;-85
2023/03/25 04:06:26;;;;;;;35.63;7.20;;;9.00;99.90;;;;;;5075031;28;20099;-83
2023/03/25 04:09:42;;;;;;;33.25;5.45;;;9.00;99.90;;;;;;5095317;28;20062;-83
2023/03/25 04:12:33;;;;;;;;;;;9.00;99.90;;;;;;5074337;28;20091;-83
2023/03/25 04:15:19;;;;;;;34.17;5.85;;;9.00;99.90;;;;;;5093030;28;19983;-83
2023/03/25 04:18:06;;;;;;;32.20;4.75;;;9.00;99.90;;;;;;5091386;28;20765;-86
2023/03/25 04:20:52;;;;;;;26.85;6.63;;;9.00;99.90;;;;;;5093674;28;20044;-83
2023/03/25 04:23:40;;;;;;;24.52;5.32;;;9.10;99.90;;;;;;5093699;28;20069;-83
2023/03/25 04:26:32;;;;;;;52.38;5.78;;;9.10;99.90;;;;;;5073279;28;20048;-83
2023/03/25 04:29:18;;;;;;;27.27;5.28;;;9.00;99.90;;;;;;5092191;28;20436;-87
2023/03/25 04:32:04;;;;;;;26.90;5.00;;;9.10;99.90;;;;;;5096587;28;20056;-83
2023/03/25 04:34:50;;;;;;;27.92;5.63;;;9.10;99.90;;;;;;5095885;28;20074;-87
2023/03/25 04:37:37;;;;;;;37.90;6.95;;;9.10;99.90;;;;;;5096698;28;20048;-84
2023/03/25 04:40:24;;;;;;;31.45;5.20;;;9.00;99.90;;;;;;5091913;28;20048;-84
2023/03/25 04:43:11;;;;;;;34.92;6.78;;;9.00;99.90;;;;;;5091896;28;20040;-83
2023/03/25 04:45:59;;;;;;;29.67;5.10;;;9.00;99.90;;;;;;5091094;28;20055;-81
2023/03/25 04:48:46;;;;;;;34.75;6.47;;;9.00;99.90;;;;;;5083110;28;20577;-80
2023/03/25 04:51:32;;;;;;;31.05;7.15;;;8.90;99.90;;;;;;5091655;28;20055;-83
2023/03/25 04:54:19;;;;;;;29.60;5.22;;;8.90;99.90;;;;;;5096758;28;20044;-83
2023/03/25 04:57:08;;;;;;;34.03;5.05;;;8.90;99.90;;;;;;5090521;28;20044;-82
2023/03/25 04:59:55;;;;;;;39.75;7.68;;;8.90;99.90;;;;;;5076909;28;20059;-82
2023/03/25 05:03:00;;;;;;;40.42;6.78;;;8.90;99.90;;;;;;5091882;28;20059;-82
2023/03/25 05:05:46;;;;;;;33.53;5.38;;;8.90;99.90;;;;;;5092919;28;20055;-86
2023/03/25 05:08:33;;;;;;;30.00;6.28;;;8.90;99.90;;;;;;5093842;28;20051;-85
2023/03/25 05:11:19;;;;;;;25.85;5.90;;;8.90;99.90;;;;;;5091788;28;20051;-84
2023/03/25 05:14:06;;;;;;;33.15;5.43;;;8.90;99.90;;;;;;5090943;28;20146;-81
2023/03/25 05:16:54;;;;;;;42.38;7.07;;;8.90;99.90;;;;;;5094338;28;20044;-81
2023/03/25 05:19:42;;;;;;;34.83;5.70;;;8.90;99.90;;;;;;5090990;28;20044;-83
2023/03/25 05:22:28;;;;;;;35.78;6.55;;;8.90;99.90;;;;;;5091789;28;20052;-84
2023/03/25 05:25:14;;;;;;;30.52;5.35;;;8.90;99.90;;;;;;5090192;28;20059;-83
2023/03/25 05:28:04;;;;;;;20.40;5.07;;;9.00;99.90;;;;;;5090795;28;20067;-87
2023/03/25 05:30:50;;;;;;;25.63;5.03;;;8.90;99.90;;;;;;5090255;28;20062;-84
2023/03/25 05:33:43;;;;;;;34.55;5.63;;;8.90;99.90;;;;;;5091019;28;20044;-85
2023/03/25 05:36:30;;;;;;;30.90;5.63;;;8.90;99.90;;;;;;5062665;28;20192;-83
2023/03/25 05:39:16;;;;;;;30.98;5.00;;;8.90;99.90;;;;;;5066307;28;20051;-82
2023/03/25 05:42:02;;;;;;;22.85;5.68;;;8.90;99.90;;;;;;5094887;28;20055;-85
2023/03/25 05:44:52;;;;;;;23.85;4.82;;;8.90;99.90;;;;;;5072385;28;20060;-83
2023/03/25 05:47:39;;;;;;;31.33;5.68;;;8.90;99.90;;;;;;5072344;28;20134;-83
2023/03/25 05:50:27;;;;;;;23.25;6.78;;;8.90;99.90;;;;;;5090439;28;20056;-82
2023/03/25 05:53:16;;;;;;;30.58;5.05;;;8.90;99.90;;;;;;5058486;28;20052;-83
2023/03/25 05:56:02;;;;;;;33.22;5.75;;;8.90;99.90;;;;;;5089933;28;20090;-84
2023/03/25 05:58:50;;;;;;;28.33;4.50;;;8.80;99.90;;;;;;5092502;28;20048;-81
2023/03/25 06:01:36;;;;;;;26.05;4.45;;;8.90;99.90;;;;;;5075174;28;20040;-81
2023/03/25 06:04:23;;;;;;;27.33;5.10;;;8.80;99.90;;;;;;5090970;28;20091;-83
2023/03/25 06:07:18;;;;;;;29.40;6.18;;;8.90;99.90;;;;;;5089667;28;20575;-83
2023/03/25 06:10:05;;;;;;;36.92;6.63;;;8.90;99.90;;;;;;5074732;28;20253;-83
2023/03/25 06:12:51;;;;;;;32.22;5.57;;;8.90;99.90;;;;;;5075035;28;20130;-85
2023/03/25 06:15:39;;;;;;;23.77;4.53;;;8.90;99.90;;;;;;5082105;28;20082;-82
2023/03/25 06:18:25;;;;;;;24.70;4.53;;;8.90;99.90;;;;;;5072036;28;20062;-82
2023/03/25 06:21:11;;;;;;;33.95;5.05;;;8.90;99.90;;;;;;5060246;28;20127;-82
2023/03/25 06:24:00;;;;;;;32.20;6.13;;;8.90;99.90;;;;;;5075388;28;20060;-83
2023/03/25 06:26:47;;;;;;;27.10;6.63;;;8.90;99.90;;;;;;5056942;28;20048;-85
2023/03/25 06:29:36;;;;;;;29.02;6.82;;;9.00;99.90;;;;;;5076162;28;20052;-83
2023/03/25 06:32:24;;;;;;;24.08;3.78;;;8.90;99.90;;;;;;5089765;28;20152;-84
2023/03/25 06:35:11;;;;;;;38.95;5.47;;;8.90;99.90;;;;;;5089478;28;20112;-84
2023/03/25 06:37:57;;;;;;;36.08;4.88;;;9.00;99.90;;;;;;5077295;28;20237;-85
2023/03/25 06:40:43;;;;;;;27.42;4.63;;;9.00;99.90;;;;;;5073599;28;20085;-83
2023/03/25 06:43:29;;;;;;;25.60;4.25;;;9.00;99.90;;;;;;5093368;28;20083;-84
2023/03/25 06:46:16;;;;;;;29.55;6.55;;;9.00;99.90;;;;;;5074266;28;20067;-83
2023/03/25 06:49:02;;;;;;;35.17;5.70;;;9.00;99.90;;;;;;5093249;28;20191;-86
2023/03/25 06:51:48;;;;;;;22.45;5.40;;;9.00;99.90;;;;;;5089685;28;20500;-85
2023/03/25 06:54:34;;;;;;;16.73;3.63;;;9.00;99.90;;;;;;5088492;28;20590;-87
2023/03/25 06:57:20;;;;;;;24.15;4.35;;;8.90;99.90;;;;;;5058883;28;20052;-86
2023/03/25 07:00:07;;;;;;;33.60;4.85;;;9.00;99.90;;;;;;5091905;28;20047;-84
2023/03/25 07:02:54;;;;;;;22.27;4.72;;;9.10;99.90;;;;;;5089011;28;20558;-84
2023/03/25 07:05:42;;;;;;;26.08;4.53;;;9.10;99.90;;;;;;5072790;28;20058;-84
2023/03/25 07:08:29;;;;;;;25.60;5.40;;;9.10;99.90;;;;;;5090484;28;20051;-84
2023/03/25 07:11:19;;;;;;;22.17;4.22;;;9.00;99.90;;;;;;5075526;28;20056;-87
2023/03/25 07:14:06;;;;;;;21.38;3.65;;;9.00;99.90;;;;;;5092564;28;20480;-86
2023/03/25 07:16:52;;;;;;;20.13;4.32;;;8.80;99.90;;;;;;5097042;28;20048;-86
2023/03/25 07:19:38;;;;;;;28.92;4.32;;;8.70;99.90;;;;;;5095682;28;20048;-87
2023/03/25 07:22:24;;;;;;;16.55;2.78;;;8.60;99.90;;;;;;5098009;28;20106;-87
2023/03/25 07:25:11;;;;;;;18.88;3.28;;;8.60;99.90;;;;;;5069892;28;20067;-86
2023/03/25 07:27:57;;;;;;;20.48;3.60;;;8.60;99.90;;;;;;5101421;28;20078;-85
2023/03/25 07:30:44;;;;;;;23.60;4.05;;;8.60;99.90;;;;;;5100137;28;20137;-86
2023/03/25 07:33:30;;;;;;;27.80;4.97;;;8.60;99.90;;;;;;5084551;28;20149;-83
2023/03/25 07:36:16;;;;;;;33.88;4.32;;;8.60;99.90;;;;;;5096384;28;20044;-87
2023/03/25 07:39:02;;;;;;;36.10;5.47;;;8.60;99.90;;;;;;5096059;28;20078;-87
2023/03/25 07:41:48;;;;;;;29.25;4.05;;;8.70;99.90;;;;;;5098392;28;20098;-85
2023/03/25 07:44:35;;;;;;;23.10;3.80;;;8.90;99.90;;;;;;5092892;28;20478;-87
2023/03/25 07:47:21;;;;;;;28.92;5.53;;;9.00;99.90;;;;;;5077631;28;20066;-86
2023/03/25 07:50:10;;;;;;;20.17;4.00;;;9.00;99.90;;;;;;5079615;28;20477;-85
2023/03/25 07:52:57;;;;;;;28.33;4.13;;;9.10;99.90;;;;;;5094117;28;20142;-84
2023/03/25 07:55:49;;;;;;;17.73;3.10;;;9.10;99.90;;;;;;5100687;28;20040;-83
2023/03/25 07:58:36;;;;;;;15.85;3.95;;;9.10;99.90;;;;;;5093378;28;20083;-86
2023/03/25 08:01:22;;;;;;;17.85;4.50;;;9.10;99.90;;;;;;5092223;28;20055;-89
2023/03/25 08:04:08;;;;;;;34.47;4.95;;;9.10;99.90;;;;;;5095394;28;20090;-84
2023/03/25 08:06:54;;;;;;;20.52;3.97;;;9.10;99.90;;;;;;5098384;28;20040;-88
2023/03/25 08:09:41;;;;;;;19.42;3.88;;;9.10;99.90;;;;;;5093569;28;20040;-86
2023/03/25 08:12:27;;;;;;;28.85;4.65;;;9.00;99.90;;;;;;5075356;28;20164;-86
2023/03/25 08:15:15;;;;;;;20.50;4.15;;;8.90;99.90;;;;;;5092410;28;20051;-85
2023/03/25 08:18:04;;;;;;;28.73;4.78;;;8.80;99.90;;;;;;5091423;28;20050;-85
2023/03/25 08:20:51;;;;;;;17.02;3.58;;;8.70;99.90;;;;;;5062106;28;20048;-85
2023/03/25 08:23:37;;;;;;;19.45;4.25;;;8.80;99.90;;;;;;5080023;28;20090;-86
2023/03/25 08:26:25;;;;;;;21.65;4.30;;;8.80;99.90;;;;;;5093844;28;20044;-87
2023/03/25 08:29:12;;;;;;;19.35;4.07;;;8.60;99.90;;;;;;5097764;28;20132;-86
2023/03/25 08:31:58;;;;;;;22.45;3.83;;;8.60;99.90;;;;;;5093546;28;20048;-83
2023/03/25 08:34:44;;;;;;;26.42;3.80;;;8.60;99.90;;;;;;5092906;28;20147;-88
2023/03/25 08:37:34;;;;;;;23.95;5.25;;;8.60;99.90;;;;;;5076984;28;20068;-82
2023/03/25 08:40:20;;;;;;;21.10;4.72;;;8.70;99.90;;;;;;5090860;28;20043;-85
2023/03/25 08:43:06;;;;;;;23.00;3.90;;;8.90;99.90;;;;;;5090637;28;20492;-84
2023/03/25 08:45:53;;;;;;;23.67;4.63;;;9.00;99.90;;;;;;5094235;28;20044;-83
2023/03/25 08:48:39;;;;;;;27.80;4.47;;;9.20;99.90;;;;;;5095846;28;20054;-83
2023/03/25 08:51:25;;;;;;;23.88;4.10;;;9.40;99.90;;;;;;5074271;28;20052;-86
2023/03/25 08:54:12;;;;;;;18.95;3.65;;;9.60;99.90;;;;;;5091223;28;20137;-87
2023/03/25 08:56:58;;;;;;;28.45;4.13;;;9.70;99.90;;;;;;5094007;28;20507;-89
2023/03/25 08:59:44;;;;;;;22.63;3.65;;;9.60;99.90;;;;;;5093742;28;20080;-86
2023/03/25 09:02:30;;;;;;;18.65;3.35;;;9.70;99.90;;;;;;5075687;28;20051;-83
2023/03/25 09:05:17;;;;;;;29.55;3.85;;;9.70;99.90;;;;;;5095362;28;20079;-86
2023/03/25 09:08:04;;;;;;;20.52;3.67;;;9.70;99.90;;;;;;5093820;28;20731;-88
2023/03/25 09:10:50;;;;;;;22.83;5.50;;;9.70;99.90;;;;;;5096318;28;20056;-82
2023/03/25 09:13:36;;;;;;;18.70;4.18;;;9.80;99.90;;;;;;5091325;28;20131;-84
2023/03/25 09:16:22;;;;;;;20.98;3.50;;;9.80;99.90;;;;;;5094194;28;20048;-82
2023/03/25 09:19:09;;;;;;;25.05;3.65;;;9.90;99.90;;;;;;5093720;28;20445;-89
2023/03/25 09:21:55;;;;;;;15.10;3.30;;;10.00;99.90;;;;;;5091690;28;20075;-84
2023/03/25 09:24:41;;;;;;;20.35;3.47;;;10.00;99.90;;;;;;5091754;28;20072;-83
2023/03/25 09:27:27;;;;;;;18.90;3.35;;;10.00;99.90;;;;;;5090296;28;20087;-85
2023/03/25 09:30:14;;;;;;;19.80;4.97;;;9.70;99.90;;;;;;5090372;28;20807;-85
2023/03/25 09:33:00;;;;;;;27.23;4.38;;;9.60;99.90;;;;;;5063209;28;20048;-83
2023/03/25 09:35:48;;;;;;;18.38;3.45;;;9.60;99.90;;;;;;5072235;28;20499;-83
2023/03/25 09:38:34;;;;;;;29.05;3.83;;;9.60;99.90;;;;;;5091261;28;20091;-84
2023/03/25 09:41:54;;;;;;;24.63;3.47;;;9.70;99.90;;;;;;5090828;28;20044;-85
2023/03/25 09:45:28;;;;;;;19.60;4.00;;;9.80;99.90;;;;;;5091302;28;20496;-89
2023/03/25 09:48:38;;;;;;;19.10;4.47;;;9.70;99.90;;;;;;5082250;28;20066;-82
2023/03/25 09:51:35;;;;;;;11.45;2.55;;;9.80;99.90;;;;;;5091509;28;20058;-83
2023/03/25 09:54:28;;;;;;;20.10;3.83;;;9.90;99.90;;;;;;5075670;28;20463;-86
2023/03/25 09:57:21;;;;;;;22.48;4.38;;;9.90;99.90;;;;;;5090440;28;20416;-89
2023/03/25 10:00:21;;;;;;;23.80;4.07;;;9.90;99.90;;;;;;5079020;28;20078;-85
2023/03/25 10:03:07;;;;;;;20.33;4.05;;;9.90;99.90;;;;;;5072672;28;20056;-87
2023/03/25 10:06:13;;;;;;;32.08;5.65;;;10.00;99.90;;;;;;5093154;28;20378;-87
2023/03/25 10:09:14;;;;;;;28.83;5.47;;;10.00;99.90;;;;;;5093151;28;20130;-83
2023/03/25 10:12:09;;;;;;;29.15;5.05;;;10.00;99.90;;;;;;5076848;28;20102;-83
2023/03/25 10:15:02;;;;;;;26.10;4.68;;;10.10;99.90;;;;;;5090819;28;20044;-83
2023/03/25 10:18:03;;;;;;;25.67;4.55;;;10.20;99.90;;;;;;5073850;28;20044;-86
2023/03/25 10:20:50;;;;;;;17.77;3.88;;;10.10;99.90;;;;;;5059848;28;20105;-86
2023/03/25 10:23:54;;;;;;;22.08;3.72;;;10.20;99.90;;;;;;5061053;28;20055;-82
2023/03/25 10:27:01;;;;;;;28.85;3.63;;;10.30;99.90;;;;;;5090153;28;20523;-84
2023/03/25 10:30:08;;;;;;;21.52;3.42;;;10.50;99.90;;;;;;5072589;28;20496;-83
2023/03/25 10:33:01;;;;;;;21.58;4.32;;;10.70;99.90;;;;;;5089677;28;20052;-87
2023/03/25 10:35:47;;;;;;;25.20;4.45;;;10.70;99.90;;;;;;5095309;28;20048;-84
2023/03/25 10:38:36;;;;;;;28.70;4.05;;;10.70;99.90;;;;;;5074174;28;20406;-86
2023/03/25 10:41:36;;;;;;;18.35;2.97;;;10.70;99.90;;;;;;5090580;28;20602;-89
2023/03/25 10:44:25;;;;;;;16.70;3.75;;;10.70;99.90;;;;;;5092312;28;20538;-87
2023/03/25 10:47:17;;;;;;;24.30;3.15;;;10.70;99.90;;;;;;5096861;28;20136;-84
2023/03/25 10:50:18;;;;;;;22.25;3.55;;;10.70;99.90;;;;;;5080485;28;20082;-84
2023/03/25 10:53:04;;;;;;;22.88;4.65;;;10.70;99.90;;;;;;5102988;28;20048;-86
2023/03/25 10:55:58;;;;;;;23.63;5.63;;;10.70;99.90;;;;;;5083297;28;20055;-87
2023/03/25 10:58:51;;;;;;;20.98;5.47;;;10.60;99.90;;;;;;5105427;28;20044;-85
2023/03/25 11:01:41;;;;;;;22.35;5.38;;;10.70;99.90;;;;;;5100958;28;20044;-87
2023/03/25 11:04:36;;;;;;;25.52;5.38;;;10.70;99.90;;;;;;5093443;28;20143;-86
2023/03/25 11:08:04;;;;;;;24.13;4.05;;;10.80;99.90;;;;;;5093944;28;20109;-82
2023/03/25 11:10:55;;;;;;;21.58;4.35;;;11.00;99.90;;;;;;5095161;28;20074;-86
2023/03/25 11:13:42;;;;;;;20.88;3.05;;;11.00;99.90;;;;;;5093392;28;20058;-86
2023/03/25 11:16:32;;;;;;;23.85;5.13;;;11.10;99.90;;;;;;5071136;28;20091;-84
2023/03/25 11:19:35;;;;;;;20.83;4.97;;;11.10;99.90;;;;;;5071763;28;20048;-84
2023/03/25 11:22:27;;;;;;;16.98;4.03;;;11.20;99.90;;;;;;5073234;28;20047;-84
2023/03/25 11:25:28;;;;;;;20.30;3.88;;;11.00;99.90;;;;;;5070970;28;20056;-84
2023/03/25 11:28:21;;;;;;;21.50;4.20;;;11.00;99.90;;;;;;5089792;28;20056;-85
2023/03/25 11:31:19;;;;;;;23.75;4.88;;;10.90;99.90;;;;;;5058603;28;20445;-82
2023/03/25 11:34:22;;;;;;;18.50;3.40;;;10.80;99.90;;;;;;5096299;28;20051;-85
2023/03/25 11:37:18;;;;;;;14.52;3.08;;;10.80;99.90;;;;;;5070283;28;20048;-84
2023/03/25 11:40:15;;;;;;;15.02;2.90;;;10.90;99.90;;;;;;5089737;28;20413;-86
2023/03/25 11:43:03;;;;;;;18.08;3.30;;;10.90;99.90;;;;;;5057442;28;20066;-83
2023/03/25 11:45:49;;;;;;;18.77;3.55;;;10.90;99.90;;;;;;5057178;28;20143;-86
2023/03/25 11:48:40;;;;;;;15.75;4.05;;;11.00;99.90;;;;;;5087402;28;20051;-84
2023/03/25 11:51:31;;;;;;;16.17;3.20;;;11.10;99.90;;;;;;5069952;28;20101;-83
2023/03/25 11:54:17;;;;;;;21.67;4.40;;;10.90;99.90;;;;;;5089560;28;20135;-82
2023/03/25 11:57:09;;;;;;;18.10;3.38;;;10.80;99.90;;;;;;5073731;28;20048;-83
2023/03/25 12:00:19;;;;;;;16.13;3.28;;;10.80;99.90;;;;;;5071940;28;20059;-84
2023/03/25 12:03:20;;;;;;;16.52;3.67;;;11.00;99.90;;;;;;5090149;28;20056;-85
2023/03/25 12:06:17;;;;;;;18.23;3.08;;;10.90;99.90;;;;;;5072047;28;20048;-85
2023/03/25 12:09:08;;;;;;;19.35;3.58;;;11.00;99.90;;;;;;5074273;28;20106;-82
2023/03/25 12:12:21;;;;;;;23.15;3.35;;;11.00;99.90;;;;;;5092070;28;20607;-87
2023/03/25 12:15:45;;;;;;;24.20;4.57;;;10.90;99.90;;;;;;5092085;28;20508;-86
2023/03/25 12:19:07;;;;;;;25.45;3.92;;;11.00;99.90;;;;;;5092286;28;20109;-83
2023/03/25 12:22:14;;;;;;;20.40;4.38;;;11.10;99.90;;;;;;5005925;28;20143;-82
2023/03/25 12:25:10;;;;;;;16.92;4.05;;;11.10;99.90;;;;;;5094032;28;20752;-86
2023/03/25 12:28:09;;;;;;;21.02;3.28;;;11.40;99.90;;;;;;5093378;28;20079;-85
2023/03/25 12:31:32;;;;;;;20.05;4.82;;;11.40;99.90;;;;;;5091106;28;20517;-83
2023/03/25 12:34:31;;;;;;;17.08;3.15;;;11.10;99.90;;;;;;5091502;28;20048;-83
2023/03/25 12:37:55;;;;;;;18.92;3.97;;;10.80;99.90;;;;;;5060005;28;20385;-83
2023/03/25 12:40:48;;;;;;;13.85;3.50;;;10.70;99.90;;;;;;5092898;28;20101;-84
2023/03/25 12:43:59;;;;;;;36.08;6.15;;;10.60;99.90;;;;;;5092554;28;20062;-82
2023/03/25 12:47:11;;;;;;;26.35;4.88;;;10.60;99.90;;;;;;5093351;28;20170;-84
2023/03/25 12:50:00;;;;;;;26.00;4.45;;;10.50;99.90;;;;;;5093885;28;20055;-84
2023/03/25 12:52:53;;;;;;;20.92;4.93;;;10.50;99.90;;;;;;5080402;28;20066;-82
2023/03/25 12:56:05;;;;;;;20.35;4.22;;;10.40;99.90;;;;;;5061595;28;20443;-83
2023/03/25 12:59:06;;;;;;;17.83;2.60;;;10.30;99.90;;;;;;5072633;28;20052;-83
2023/03/25 13:01:58;;;;;;;8.60;2.45;;;9.60;99.90;;;;;;5090840;28;20496;-85
2023/03/25 13:05:17;;;;;;;12.18;2.35;;;9.00;99.90;;;;;;5089850;28;20056;-84
2023/03/25 13:08:26;;;;;;;8.02;1.13;;;8.70;99.90;;;;;;5055421;28;20060;-83
2023/03/25 13:11:22;;;;;;;13.00;1.90;;;8.50;99.90;;;;;;5093924;28;20563;-83
2023/03/25 13:14:11;;;;;;;;;;;8.50;99.90;;;;;;5091666;28;20051;-86
2023/03/25 13:17:02;;;;;;;11.77;1.70;;;8.50;99.90;;;;;;5091054;28;19924;-86
2023/03/25 13:19:51;;;;;;;9.65;1.75;;;8.40;99.90;;;;;;5091059;28;20554;-85
2023/03/25 13:22:51;;;;;;;7.13;0.98;;;8.40;99.90;;;;;;5072111;28;20747;-82
2023/03/25 13:25:55;;;;;;;10.18;1.33;;;8.70;99.90;;;;;;5091265;28;20043;-83
2023/03/25 13:28:45;;;;;;;14.23;2.80;;;8.80;99.90;;;;;;5092922;28;20059;-83
2023/03/25 13:31:42;;;;;;;16.55;4.03;;;8.70;99.90;;;;;;5089443;28;20468;-86
2023/03/25 13:34:55;;;;;;;14.43;2.92;;;8.70;99.90;;;;;;5091088;28;20044;-86
2023/03/25 13:37:52;;;;;;;13.95;2.60;;;8.70;99.90;;;;;;5072194;28;20504;-85
2023/03/25 13:40:57;;;;;;;21.13;5.38;;;8.60;99.90;;;;;;5091753;28;20044;-89
2023/03/25 13:44:15;;;;;;;8.93;2.07;;;8.40;99.90;;;;;;5094016;28;20094;-87
2023/03/25 13:47:25;;;;;;;11.60;2.40;;;8.30;99.90;;;;;;5057022;28;20300;-87
2023/03/25 13:50:38;;;;;;;16.25;3.30;;;8.50;99.90;;;;;;5092018;28;20111;-86
2023/03/25 13:53:59;;;;;;;13.52;2.95;;;8.70;99.90;;;;;;5074952;28;20055;-87
2023/03/25 13:57:12;;;;;;;9.35;2.83;;;9.30;99.90;;;;;;5090441;28;20488;-83
2023/03/25 14:00:29;;;;;;;23.88;4.65;;;9.90;99.90;;;;;;5093610;28;20097;-84
2023/03/25 14:03:46;;;;;;;17.98;3.08;;;9.60;99.90;;;;;;5075143;28;20092;-87
2023/03/25 14:07:04;;;;;;;23.35;4.63;;;9.20;99.90;;;;;;5071497;28;20194;-91
2023/03/25 14:10:09;;;;;;;19.33;3.20;;;9.00;99.90;;;;;;5048664;28;20090;-84
2023/03/25 14:13:00;;;;;;;18.65;3.70;;;8.90;99.90;;;;;;5089955;28;20044;-92
2023/03/25 14:16:06;;;;;;;21.75;3.75;;;8.80;99.90;;;;;;5089875;28;20137;-88
2023/03/25 14:18:57;;;;;;;23.95;4.07;;;8.90;99.90;;;;;;5090312;28;20044;-91
2023/03/25 14:21:48;;;;;;;14.93;3.15;;;9.00;99.90;;;;;;5090617;28;20080;-87
2023/03/25 14:24:37;;;;;;;21.13;3.88;;;8.90;99.90;;;;;;5078889;28;20052;-83
2023/03/25 14:27:32;;;;;;;14.55;3.17;;;8.80;99.90;;;;;;5085766;28;20051;-84
2023/03/25 14:30:21;;;;;;;;;;;8.90;99.90;;;;;;5082037;28;20048;-90
2023/03/25 14:33:11;;;;;;;22.27;3.90;;;9.20;99.90;;;;;;5062344;28;20392;-87
2023/03/25 14:35:57;;;;;;;22.60;3.67;;;9.40;99.90;;;;;;5099713;28;20052;-87
2023/03/25 14:38:55;;;;;;;18.48;4.00;;;9.60;99.90;;;;;;5102870;28;20736;-85
2023/03/25 14:42:07;;;;;;;17.00;5.00;;;9.50;99.90;;;;;;5064060;28;20134;-83
2023/03/25 14:45:37;;;;;;;25.13;5.45;;;9.40;99.90;;;;;;5096214;28;20047;-83
2023/03/25 14:49:10;;;;;;;14.80;2.67;;;9.40;99.90;;;;;;5074104;28;20098;-85
2023/03/25 14:51:57;;;;;;;21.85;3.40;;;9.50;99.90;;;;;;5072271;28;20056;-85
2023/03/25 14:54:51;;;;;;;14.57;2.63;;;9.40;99.90;;;;;;5094232;28;20052;-83
2023/03/25 14:57:41;;;;;;;13.68;3.40;;;9.30;99.90;;;;;;5094422;28;20044;-83
2023/03/25 15:00:41;;;;;;;23.58;5.57;;;9.30;99.90;;;;;;5072654;28;20048;-85